Time;durP1;ratioP1;P1;durP2;ratioP2;P2;SDS_P1;SDS_P2;PMS_P1;PMS_P2;Temp;Humidity;BMP_temperature;BMP_pressure;BME280_temperature;BME280_humidity;BME280_pressure;Samples;Min_cycle;Max_cycle;Signal;HPM_P1;HPM_P2
2024/04/14 00:02:17;;;;;;;4.47;3.53;;;;;;;;;;5394394;26;20451;-83
2024/04/14 00:04:48;;;;;;;8.98;2.60;;;;;;;;;;5395126;26;20076;-83
2024/04/14 00:07:16;;;;;;;0.98;0.88;;;;;;;;;;5393700;26;19992;-82
2024/04/14 00:09:42;;;;;;;4.03;1.63;;;;;;;;;;5395420;26;20435;-83
2024/04/14 00:12:08;;;;;;;2.03;1.17;;;;;;;;;;5398425;26;20007;-83
2024/04/14 00:14:33;;;;;;;9.85;2.80;;;;;;;;;;5390574;26;20008;-82
2024/04/14 00:16:59;;;;;;;1.52;1.35;;;;;;;;;;5401071;26;20371;-81
2024/04/14 00:19:25;;;;;;;1.58;1.48;;;;;;;;;;5399738;26;20043;-83
2024/04/14 00:21:50;;;;;;;1.05;0.85;;;;;;;;;;5402911;26;20015;-81
2024/04/14 00:24:16;;;;;;;1.15;0.95;;;;;;;;;;5401442;26;20004;-83
2024/04/14 00:26:42;;;;;;;0.60;0.60;;;;;;;;;;5404456;26;20455;-81
2024/04/14 00:29:08;;;;;;;1.35;1.23;;;;;;;;;;5402234;26;20000;-81
2024/04/14 00:31:33;;;;;;;0.70;0.60;;;;;;;;;;5405094;26;19995;-82
2024/04/14 00:33:59;;;;;;;2.10;1.83;;;;;;;;;;5394331;26;20006;-83
2024/04/14 00:36:25;;;;;;;1.38;1.25;;;;;;;;;;5393514;26;19999;-83
2024/04/14 00:38:50;;;;;;;1.48;1.38;;;;;;;;;;5409288;26;20019;-84
2024/04/14 00:41:16;;;;;;;1.52;1.42;;;;;;;;;;5390275;26;20828;-83
2024/04/14 00:43:42;;;;;;;2.42;1.75;;;;;;;;;;5368504;26;20001;-83
2024/04/14 00:46:07;;;;;;;1.00;0.65;;;;;;;;;;5398356;26;20036;-81
2024/04/14 00:48:33;;;;;;;0.65;0.65;;;;;;;;;;5402902;26;20455;-81
2024/04/14 00:51:00;;;;;;;2.25;2.05;;;;;;;;;;5391921;26;20015;-81
2024/04/14 00:53:27;;;;;;;1.52;1.25;;;;;;;;;;5396052;26;20449;-81
2024/04/14 00:55:53;;;;;;;2.20;1.85;;;;;;;;;;5388556;26;19999;-82
2024/04/14 00:58:19;;;;;;;2.53;1.92;;;;;;;;;;5402080;26;20089;-81
2024/04/14 01:00:45;;;;;;;2.35;2.15;;;;;;;;;;5403800;26;20019;-81
2024/04/14 01:03:11;;;;;;;1.90;1.48;;;;;;;;;;5397458;26;20075;-80
2024/04/14 01:05:37;;;;;;;1.48;1.17;;;;;;;;;;5400214;26;20073;-80
2024/04/14 01:08:03;;;;;;;1.15;1.05;;;;;;;;;;5396798;26;20007;-82
2024/04/14 01:10:30;;;;;;;0.82;0.82;;;;;;;;;;5407107;26;20000;-81
2024/04/14 01:12:56;;;;;;;1.67;1.45;;;;;;;;;;5395610;26;19996;-83
2024/04/14 01:15:21;;;;;;;2.65;2.20;;;;;;;;;;5393000;26;20000;-82
2024/04/14 01:17:47;;;;;;;1.63;1.52;;;;;;;;;;5395505;26;20556;-80
2024/04/14 01:20:13;;;;;;;1.27;1.13;;;;;;;;;;5390304;26;20003;-82
2024/04/14 01:22:40;;;;;;;1.73;1.65;;;;;;;;;;5394037;26;20000;-82
2024/04/14 01:25:06;;;;;;;2.78;1.88;;;;;;;;;;5390875;26;20438;-81
2024/04/14 01:27:36;;;;;;;0.98;0.90;;;;;;;;;;5406353;26;20073;-81
2024/04/14 01:30:07;;;;;;;0.80;0.80;;;;;;;;;;5406254;26;20659;-83
2024/04/14 01:32:34;;;;;;;1.77;1.65;;;;;;;;;;5365626;26;20003;-82
2024/04/14 01:35:00;;;;;;;2.33;1.55;;;;;;;;;;5397287;26;20662;-82
2024/04/14 01:37:26;;;;;;;1.65;0.80;;;;;;;;;;5403532;26;19999;-82
2024/04/14 01:39:52;;;;;;;2.15;1.55;;;;;;;;;;5403075;26;20011;-82
2024/04/14 01:42:17;;;;;;;0.90;0.63;;;;;;;;;;5393302;26;20002;-83
2024/04/14 01:44:43;;;;;;;1.70;1.30;;;;;;;;;;5374056;26;20021;-81
2024/04/14 01:47:09;;;;;;;0.63;0.45;;;;;;;;;;5401783;26;20447;-82
2024/04/14 01:49:34;;;;;;;1.38;1.27;;;;;;;;;;5385462;26;20727;-83
2024/04/14 01:52:01;;;;;;;2.35;1.88;;;;;;;;;;5399884;26;20048;-81
2024/04/14 01:54:27;;;;;;;2.08;1.25;;;;;;;;;;5389513;26;20009;-83
2024/04/14 01:56:52;;;;;;;0.63;0.63;;;;;;;;;;5393357;26;20004;-83
2024/04/14 01:59:18;;;;;;;1.67;1.58;;;;;;;;;;5408719;26;20470;-82
2024/04/14 02:01:44;;;;;;;2.40;2.20;;;;;;;;;;5364121;26;20004;-82
2024/04/14 02:04:09;;;;;;;1.00;0.73;;;;;;;;;;5407514;26;20022;-82
2024/04/14 02:06:35;;;;;;;2.53;2.33;;;;;;;;;;5401077;26;19999;-82
2024/04/14 02:09:01;;;;;;;6.40;1.27;;;;;;;;;;5404247;26;20489;-82
2024/04/14 02:11:27;;;;;;;1.20;1.10;;;;;;;;;;5408805;26;19992;-83
2024/04/14 02:13:53;;;;;;;2.67;1.85;;;;;;;;;;5390385;26;20007;-82
2024/04/14 02:16:19;;;;;;;1.27;1.17;;;;;;;;;;5397315;26;19995;-82
2024/04/14 02:18:45;;;;;;;2.90;2.65;;;;;;;;;;5369308;26;20442;-77
2024/04/14 02:21:11;;;;;;;1.70;1.02;;;;;;;;;;5397276;26;20613;-76
2024/04/14 02:23:40;;;;;;;3.08;2.25;;;;;;;;;;5394336;26;20000;-80
2024/04/14 02:26:06;;;;;;;1.00;0.95;;;;;;;;;;5394711;26;20010;-80
2024/04/14 02:28:32;;;;;;;1.48;0.85;;;;;;;;;;5403999;26;20000;-80
2024/04/14 02:30:59;;;;;;;1.40;0.73;;;;;;;;;;5403700;26;20007;-80
2024/04/14 02:33:25;;;;;;;1.40;1.27;;;;;;;;;;5398862;26;20081;-80
2024/04/14 02:35:55;;;;;;;6.75;4.22;;;;;;;;;;5406079;26;20820;-79
2024/04/14 02:38:21;;;;;;;1.00;0.95;;;;;;;;;;5396268;26;19996;-79
2024/04/14 02:41:03;;;;;;;1.08;0.80;;;;;;;;;;5428217;26;20002;-79
2024/04/14 02:43:29;;;;;;;2.80;2.60;;;;;;;;;;5362067;26;20069;-79
2024/04/14 02:45:55;;;;;;;1.23;0.88;;;;;;;;;;5394861;26;20088;-80
2024/04/14 02:48:21;;;;;;;0.93;0.90;;;;;;;;;;5396096;26;20447;-80
2024/04/14 02:50:46;;;;;;;0.70;0.70;;;;;;;;;;5411303;26;20010;-80
2024/04/14 02:53:12;;;;;;;4.28;3.85;;;;;;;;;;5377330;26;20003;-81
2024/04/14 02:55:39;;;;;;;1.88;1.75;;;;;;;;;;5406805;26;20018;-80
2024/04/14 02:58:05;;;;;;;1.83;1.63;;;;;;;;;;5410224;26;20000;-79
2024/04/14 03:00:31;;;;;;;1.65;1.17;;;;;;;;;;5401953;26;20008;-80
2024/04/14 03:02:57;;;;;;;0.80;0.75;;;;;;;;;;5409616;26;20083;-80
2024/04/14 03:05:23;;;;;;;1.42;1.33;;;;;;;;;;5398556;26;20500;-80
2024/04/14 03:07:52;;;;;;;1.35;1.25;;;;;;;;;;5359030;26;19995;-81
2024/04/14 03:10:18;;;;;;;1.25;1.15;;;;;;;;;;5406743;26;20000;-80
2024/04/14 03:12:47;;;;;;;1.17;0.95;;;;;;;;;;5410352;26;20015;-81
2024/04/14 03:15:13;;;;;;;2.92;2.58;;;;;;;;;;5405153;26;20008;-80
2024/04/14 03:17:38;;;;;;;0.98;0.95;;;;;;;;;;5377925;26;20049;-80
2024/04/14 03:20:06;;;;;;;1.77;1.67;;;;;;;;;;5370881;26;20013;-79
2024/04/14 03:22:32;;;;;;;0.75;0.73;;;;;;;;;;5404848;26;20006;-81
2024/04/14 03:24:58;;;;;;;0.93;0.90;;;;;;;;;;5374212;26;20073;-80
2024/04/14 03:27:23;;;;;;;0.45;0.45;;;;;;;;;;5376821;26;20031;-80
2024/04/14 03:29:49;;;;;;;0.82;0.82;;;;;;;;;;5376805;26;19999;-80
2024/04/14 03:32:15;;;;;;;1.77;1.67;;;;;;;;;;5400323;26;19996;-79
2024/04/14 03:34:45;;;;;;;0.68;0.68;;;;;;;;;;5391647;26;19999;-76
2024/04/14 03:37:11;;;;;;;4.00;2.60;;;;;;;;;;5396903;26;20534;-79
2024/04/14 03:39:37;;;;;;;1.58;1.42;;;;;;;;;;5404168;26;20010;-79
2024/04/14 03:42:03;;;;;;;2.28;2.08;;;;;;;;;;5371918;26;20011;-79
2024/04/14 03:44:29;;;;;;;0.93;0.75;;;;;;;;;;5397974;26;20014;-81
2024/04/14 03:46:55;;;;;;;1.85;1.67;;;;;;;;;;5406663;26;20000;-77
2024/04/14 03:49:21;;;;;;;1.10;1.00;;;;;;;;;;5397040;26;20003;-79
2024/04/14 03:51:47;;;;;;;0.93;0.90;;;;;;;;;;5403538;26;20014;-79
2024/04/14 03:54:13;;;;;;;2.53;1.95;;;;;;;;;;5403486;26;20007;-78
2024/04/14 03:56:38;;;;;;;1.52;1.27;;;;;;;;;;5373970;26;20010;-79
2024/04/14 03:59:04;;;;;;;1.45;1.00;;;;;;;;;;5387640;26;20671;-78
2024/04/14 04:01:30;;;;;;;1.60;1.13;;;;;;;;;;5401968;26;20011;-80
2024/04/14 04:03:56;;;;;;;2.45;2.25;;;;;;;;;;5397590;26;20082;-80
2024/04/14 04:06:21;;;;;;;1.30;1.05;;;;;;;;;;5396919;26;20007;-78
2024/04/14 04:08:47;;;;;;;0.80;0.80;;;;;;;;;;5403649;26;20043;-77
2024/04/14 04:11:13;;;;;;;2.15;1.95;;;;;;;;;;5394726;26;20027;-78
2024/04/14 04:13:38;;;;;;;2.28;2.08;;;;;;;;;;5394438;26;20008;-80
2024/04/14 04:16:05;;;;;;;0.68;0.68;;;;;;;;;;5404752;26;20013;-78
2024/04/14 04:18:31;;;;;;;2.70;1.98;;;;;;;;;;5402565;26;20014;-80
2024/04/14 04:20:59;;;;;;;1.15;1.05;;;;;;;;;;5367461;26;20004;-79
2024/04/14 04:23:26;;;;;;;12.05;3.53;;;;;;;;;;5422081;26;20032;-79
2024/04/14 04:25:55;;;;;;;1.75;1.60;;;;;;;;;;5371074;26;20094;-80
2024/04/14 04:28:22;;;;;;;2.08;1.80;;;;;;;;;;5391951;26;20569;-79
2024/04/14 04:30:47;;;;;;;3.08;2.00;;;;;;;;;;5408952;26;20398;-81
2024/04/14 04:33:13;;;;;;;3.72;2.28;;;;;;;;;;5402766;26;19996;-78
2024/04/14 04:35:39;;;;;;;1.83;1.70;;;;;;;;;;5392365;26;20007;-78
2024/04/14 04:38:05;;;;;;;1.10;0.98;;;;;;;;;;5375931;26;20444;-79
2024/04/14 04:40:31;;;;;;;2.00;1.52;;;;;;;;;;5395978;26;20010;-80
2024/04/14 04:42:57;;;;;;;1.58;1.48;;;;;;;;;;5397486;26;20014;-79
2024/04/14 04:45:23;;;;;;;3.78;3.33;;;;;;;;;;5375944;26;20006;-78
2024/04/14 04:47:48;;;;;;;2.35;1.92;;;;;;;;;;5367538;26;20004;-76
2024/04/14 04:50:14;;;;;;;2.67;1.30;;;;;;;;;;5400878;26;19999;-78
2024/04/14 04:52:41;;;;;;;1.67;1.58;;;;;;;;;;5394772;26;20008;-81
2024/04/14 04:55:08;;;;;;;1.48;1.38;;;;;;;;;;5398259;26;20011;-80
2024/04/14 04:57:33;;;;;;;1.63;1.52;;;;;;;;;;5399961;26;20073;-81
2024/04/14 04:59:59;;;;;;;1.13;0.93;;;;;;;;;;5396215;26;20003;-80
2024/04/14 05:02:25;;;;;;;3.17;2.42;;;;;;;;;;5399334;26;20416;-82
2024/04/14 05:04:53;;;;;;;2.72;2.17;;;;;;;;;;5401783;26;20039;-83
2024/04/14 05:07:19;;;;;;;2.03;1.25;;;;;;;;;;5375777;26;20082;-82
2024/04/14 05:09:44;;;;;;;1.48;1.02;;;;;;;;;;5404686;26;20007;-80
2024/04/14 05:12:10;;;;;;;0.60;0.57;;;;;;;;;;5392557;26;20015;-79
2024/04/14 05:14:36;;;;;;;1.77;1.40;;;;;;;;;;5404076;26;20014;-82
2024/04/14 05:17:02;;;;;;;1.75;1.30;;;;;;;;;;5401369;26;20002;-80
2024/04/14 05:19:27;;;;;;;1.67;1.58;;;;;;;;;;5399913;26;20004;-80
2024/04/14 05:21:53;;;;;;;0.88;0.63;;;;;;;;;;5400075;26;20005;-81
2024/04/14 05:24:19;;;;;;;0.57;0.50;;;;;;;;;;5395062;26;20014;-81
2024/04/14 05:26:44;;;;;;;2.45;1.90;;;;;;;;;;5393726;26;20012;-81
2024/04/14 05:29:11;;;;;;;1.67;1.25;;;;;;;;;;5362824;26;20011;-81
2024/04/14 05:31:37;;;;;;;1.13;0.90;;;;;;;;;;5402699;26;20015;-81
2024/04/14 05:34:03;;;;;;;0.85;0.68;;;;;;;;;;5392501;26;20014;-81
2024/04/14 05:36:29;;;;;;;0.50;0.50;;;;;;;;;;5403319;26;20778;-81
2024/04/14 05:38:55;;;;;;;2.13;1.90;;;;;;;;;;5402697;26;20000;-81
2024/04/14 05:41:20;;;;;;;0.30;0.30;;;;;;;;;;5401689;26;20002;-81
2024/04/14 05:43:46;;;;;;;0.47;0.47;;;;;;;;;;5404649;26;20018;-81
2024/04/14 05:46:12;;;;;;;0.90;0.88;;;;;;;;;;5403937;26;20427;-80
2024/04/14 05:48:37;;;;;;;3.33;2.17;;;;;;;;;;5386628;26;20004;-80
2024/04/14 05:51:04;;;;;;;1.05;0.95;;;;;;;;;;5369106;26;20579;-81
2024/04/14 05:53:30;;;;;;;0.57;0.57;;;;;;;;;;5401312;26;19999;-81
2024/04/14 05:55:56;;;;;;;2.72;0.85;;;;;;;;;;5405445;26;20344;-80
2024/04/14 05:58:22;;;;;;;0.60;0.60;;;;;;;;;;5401833;26;20003;-79
2024/04/14 06:00:50;;;;;;;2.05;1.23;;;;;;;;;;5403404;26;19999;-80
2024/04/14 06:03:16;;;;;;;1.10;0.82;;;;;;;;;;5405074;26;20009;-81
2024/04/14 06:05:42;;;;;;;1.02;0.93;;;;;;;;;;5398467;26;19996;-80
2024/04/14 06:08:08;;;;;;;1.67;0.82;;;;;;;;;;5395166;26;19999;-81
2024/04/14 06:10:34;;;;;;;0.73;0.73;;;;;;;;;;5398578;26;19996;-81
2024/04/14 06:12:59;;;;;;;0.65;0.63;;;;;;;;;;5396167;26;19995;-81
2024/04/14 06:15:25;;;;;;;1.08;0.85;;;;;;;;;;5390873;26;20059;-78
2024/04/14 06:17:51;;;;;;;0.70;0.63;;;;;;;;;;5401302;26;21946;-80
2024/04/14 06:20:17;;;;;;;4.05;1.58;;;;;;;;;;5387027;26;20459;-81
2024/04/14 06:22:42;;;;;;;1.45;0.68;;;;;;;;;;5387387;26;20080;-81
2024/04/14 06:25:08;;;;;;;0.80;0.80;;;;;;;;;;5386883;26;20011;-81
2024/04/14 06:27:34;;;;;;;0.93;0.85;;;;;;;;;;5363049;26;19995;-77
2024/04/14 06:29:59;;;;;;;1.52;1.42;;;;;;;;;;5384902;26;19999;-79
2024/04/14 06:32:25;;;;;;;1.58;1.30;;;;;;;;;;5399201;26;20003;-77
2024/04/14 06:34:51;;;;;;;0.85;0.68;;;;;;;;;;5397667;26;20003;-77
2024/04/14 06:37:17;;;;;;;1.10;0.98;;;;;;;;;;5401736;26;20017;-76
2024/04/14 06:39:43;;;;;;;3.65;2.53;;;;;;;;;;5407450;26;20004;-77
2024/04/14 06:42:09;;;;;;;1.63;1.27;;;;;;;;;;5402506;26;20589;-75
2024/04/14 06:44:34;;;;;;;0.85;0.85;;;;;;;;;;5400272;26;20003;-75
2024/04/14 06:47:00;;;;;;;1.92;1.80;;;;;;;;;;5404180;26;20011;-75
2024/04/14 06:49:26;;;;;;;5.50;3.05;;;;;;;;;;5381833;26;20097;-79
2024/04/14 06:51:51;;;;;;;4.22;3.42;;;;;;;;;;5395055;26;20015;-78
2024/04/14 06:54:17;;;;;;;1.40;1.20;;;;;;;;;;5395775;26;19996;-77
2024/04/14 06:56:43;;;;;;;1.27;1.17;;;;;;;;;;5357928;26;20036;-78
2024/04/14 06:59:08;;;;;;;2.30;2.10;;;;;;;;;;5396410;26;20014;-77
2024/04/14 07:01:34;;;;;;;2.17;2.00;;;;;;;;;;5367921;26;20127;-78
2024/04/14 07:04:00;;;;;;;1.40;1.30;;;;;;;;;;5389253;26;20715;-76
2024/04/14 07:06:26;;;;;;;1.13;1.02;;;;;;;;;;5408771;26;20010;-78
2024/04/14 07:08:51;;;;;;;2.92;2.30;;;;;;;;;;5400334;26;20000;-77
2024/04/14 07:11:17;;;;;;;2.80;1.75;;;;;;;;;;5383599;26;20015;-79
2024/04/14 07:13:43;;;;;;;0.98;0.98;;;;;;;;;;5390672;26;20004;-76
2024/04/14 07:16:08;;;;;;;1.17;1.08;;;;;;;;;;5373825;26;20056;-76
2024/04/14 07:18:34;;;;;;;1.15;1.08;;;;;;;;;;5385174;26;20450;-76
2024/04/14 07:21:03;;;;;;;1.15;0.95;;;;;;;;;;5397250;26;20002;-75
2024/04/14 07:23:31;;;;;;;1.83;1.73;;;;;;;;;;5416626;26;20088;-75
2024/04/14 07:26:00;;;;;;;1.02;0.70;;;;;;;;;;5401299;26;20015;-77
2024/04/14 07:28:26;;;;;;;0.98;0.60;;;;;;;;;;5383155;26;20012;-75
2024/04/14 07:30:51;;;;;;;2.10;1.85;;;;;;;;;;5390789;26;20014;-78
2024/04/14 07:33:17;;;;;;;1.95;1.30;;;;;;;;;;5401660;26;19995;-78
2024/04/14 07:35:43;;;;;;;0.60;0.47;;;;;;;;;;5397186;26;20015;-76
2024/04/14 07:38:09;;;;;;;0.60;0.38;;;;;;;;;;5404398;26;20003;-76
2024/04/14 07:40:34;;;;;;;1.58;0.77;;;;;;;;;;5391110;26;20074;-77
2024/04/14 07:43:00;;;;;;;2.97;1.50;;;;;;;;;;5395012;26;20010;-75
2024/04/14 07:45:26;;;;;;;2.40;2.20;;;;;;;;;;5383757;26;20003;-75
2024/04/14 07:47:52;;;;;;;3.13;1.67;;;;;;;;;;5386170;26;19996;-75
2024/04/14 07:50:18;;;;;;;0.40;0.40;;;;;;;;;;5391621;26;20015;-76
2024/04/14 07:52:44;;;;;;;0.52;0.50;;;;;;;;;;5390031;26;20004;-76
2024/04/14 07:55:10;;;;;;;4.05;0.60;;;;;;;;;;5387062;26;19999;-75
2024/04/14 07:57:36;;;;;;;1.00;0.90;;;;;;;;;;5356409;26;20000;-76
2024/04/14 08:00:02;;;;;;;16.05;14.50;;;;;;;;;;5389721;26;20000;-76
2024/04/14 08:02:27;;;;;;;1.20;1.10;;;;;;;;;;5397647;26;20007;-74
2024/04/14 08:04:54;;;;;;;0.93;0.57;;;;;;;;;;5393578;26;20031;-73
2024/04/14 08:07:20;;;;;;;1.15;0.93;;;;;;;;;;5387706;26;20334;-74
2024/04/14 08:09:46;;;;;;;1.15;1.05;;;;;;;;;;5402075;26;19999;-77
2024/04/14 08:12:11;;;;;;;2.95;1.42;;;;;;;;;;5402069;26;20003;-74
2024/04/14 08:14:37;;;;;;;2.20;1.63;;;;;;;;;;5389121;26;20851;-78
2024/04/14 08:17:03;;;;;;;0.65;0.65;;;;;;;;;;5381790;26;20018;-75
2024/04/14 08:19:28;;;;;;;1.00;0.88;;;;;;;;;;5386692;26;20015;-74
2024/04/14 08:21:54;;;;;;;0.28;0.25;;;;;;;;;;5401440;26;20004;-76
2024/04/14 08:24:20;;;;;;;0.50;0.50;;;;;;;;;;5391071;26;20007;-76
2024/04/14 08:26:45;;;;;;;0.60;0.47;;;;;;;;;;5401362;26;20022;-77
2024/04/14 08:29:11;;;;;;;1.95;1.33;;;;;;;;;;5398878;26;20398;-78
2024/04/14 08:31:39;;;;;;;2.05;0.85;;;;;;;;;;5366022;26;20023;-79
2024/04/14 08:34:05;;;;;;;2.75;1.65;;;;;;;;;;5393292;26;20073;-78
2024/04/14 08:36:30;;;;;;;2.40;0.80;;;;;;;;;;5396261;26;20436;-77
2024/04/14 08:38:56;;;;;;;0.55;0.50;;;;;;;;;;5386891;26;20362;-79
2024/04/14 08:41:23;;;;;;;0.40;0.30;;;;;;;;;;5388033;26;20040;-77
2024/04/14 08:43:50;;;;;;;1.05;0.60;;;;;;;;;;5405033;26;20011;-78
2024/04/14 08:46:17;;;;;;;0.25;0.25;;;;;;;;;;5388623;26;20452;-77
2024/04/14 08:48:46;;;;;;;1.95;1.15;;;;;;;;;;5360017;26;20032;-77
2024/04/14 08:51:14;;;;;;;4.72;2.80;;;;;;;;;;5401676;26;20080;-77
2024/04/14 08:53:42;;;;;;;9.27;1.67;;;;;;;;;;5399160;26;20003;-77
2024/04/14 08:56:09;;;;;;;0.50;0.50;;;;;;;;;;5406518;26;20015;-77
2024/04/14 08:58:36;;;;;;;0.75;0.75;;;;;;;;;;5374438;26;20070;-77
2024/04/14 09:01:02;;;;;;;0.60;0.60;;;;;;;;;;5397059;26;19992;-79
2024/04/14 09:03:34;;;;;;;1.65;0.95;;;;;;;;;;5391609;26;19996;-76
2024/04/14 09:06:03;;;;;;;2.95;1.88;;;;;;;;;;5389428;26;20544;-75
2024/04/14 09:08:29;;;;;;;1.30;1.00;;;;;;;;;;5388040;26;20003;-74
2024/04/14 09:10:55;;;;;;;0.90;0.40;;;;;;;;;;5366224;26;20003;-76
2024/04/14 09:13:25;;;;;;;0.57;0.57;;;;;;;;;;5385004;26;20111;-74
2024/04/14 09:15:54;;;;;;;0.57;0.50;;;;;;;;;;5408205;26;20010;-76
2024/04/14 09:18:20;;;;;;;2.65;2.42;;;;;;;;;;5390676;26;20016;-76
2024/04/14 09:20:45;;;;;;;0.17;0.17;;;;;;;;;;5393971;26;20002;-73
2024/04/14 09:23:11;;;;;;;0.70;0.60;;;;;;;;;;5396494;26;20003;-76
2024/04/14 09:25:37;;;;;;;0.40;0.40;;;;;;;;;;5390899;26;20418;-81
2024/04/14 09:28:03;;;;;;;0.70;0.40;;;;;;;;;;5391029;26;20011;-78
2024/04/14 09:30:28;;;;;;;1.42;1.33;;;;;;;;;;5368420;26;20003;-81
2024/04/14 09:32:54;;;;;;;0.73;0.43;;;;;;;;;;5388455;26;20074;-82
2024/04/14 09:35:20;;;;;;;3.53;1.05;;;;;;;;;;5358772;26;20468;-79
2024/04/14 09:37:47;;;;;;;0.30;0.30;;;;;;;;;;5392751;26;19995;-81
2024/04/14 09:40:13;;;;;;;1.55;1.17;;;;;;;;;;5394610;26;20406;-82
2024/04/14 09:42:39;;;;;;;0.20;0.20;;;;;;;;;;5398121;26;19992;-80
2024/04/14 09:45:06;;;;;;;0.55;0.45;;;;;;;;;;5373282;26;20667;-77
2024/04/14 09:47:32;;;;;;;0.88;0.80;;;;;;;;;;5419898;26;19999;-79
2024/04/14 09:49:58;;;;;;;1.15;1.05;;;;;;;;;;5400790;26;20030;-80
2024/04/14 09:52:24;;;;;;;0.60;0.60;;;;;;;;;;5390954;26;19999;-79
2024/04/14 09:54:53;;;;;;;1.50;1.40;;;;;;;;;;5386719;26;20010;-80
2024/04/14 09:57:21;;;;;;;1.88;1.33;;;;;;;;;;5392935;26;20007;-80
2024/04/14 09:59:46;;;;;;;16.23;2.13;;;;;;;;;;5396711;26;20010;-80
2024/04/14 10:02:16;;;;;;;0.65;0.65;;;;;;;;;;5392085;26;19999;-78
2024/04/14 10:04:44;;;;;;;0.50;0.50;;;;;;;;;;5406178;26;20047;-80
2024/04/14 10:07:11;;;;;;;0.47;0.47;;;;;;;;;;5374520;26;20398;-80
2024/04/14 10:09:36;;;;;;;0.65;0.65;;;;;;;;;;5391733;26;20011;-83
2024/04/14 10:12:03;;;;;;;0.88;0.47;;;;;;;;;;5391896;26;20022;-79
2024/04/14 10:14:39;;;;;;;0.43;0.40;;;;;;;;;;5388222;26;20003;-82
2024/04/14 10:17:06;;;;;;;3.38;1.10;;;;;;;;;;5393892;26;19996;-81
2024/04/14 10:19:34;;;;;;;2.47;1.65;;;;;;;;;;5404503;26;20379;-81
2024/04/14 10:22:00;;;;;;;1.05;0.82;;;;;;;;;;5374831;26;20019;-81
2024/04/14 10:24:29;;;;;;;0.52;0.45;;;;;;;;;;5362819;26;20853;-80
2024/04/14 10:27:04;;;;;;;0.38;0.30;;;;;;;;;;5407772;26;19999;-84
2024/04/14 10:29:31;;;;;;;0.20;0.20;;;;;;;;;;5403017;26;20019;-81
2024/04/14 10:31:57;;;;;;;1.17;1.05;;;;;;;;;;5390247;26;19999;-83
2024/04/14 10:34:23;;;;;;;1.35;1.20;;;;;;;;;;5391236;26;20073;-81
2024/04/14 10:36:58;;;;;;;2.58;1.38;;;;;;;;;;5400485;26;20027;-84
2024/04/14 10:39:24;;;;;;;0.75;0.75;;;;;;;;;;5372838;26;20011;-86
2024/04/14 10:41:50;;;;;;;2.30;1.33;;;;;;;;;;5385834;26;19999;-78
2024/04/14 10:44:16;;;;;;;1.70;1.08;;;;;;;;;;5396087;26;20030;-75
2024/04/14 10:46:44;;;;;;;0.30;0.30;;;;;;;;;;5384601;26;20036;-76
2024/04/14 10:49:10;;;;;;;0.50;0.35;;;;;;;;;;5388056;26;20012;-82
2024/04/14 10:51:36;;;;;;;0.60;0.50;;;;;;;;;;5405211;26;20579;-83
2024/04/14 10:54:02;;;;;;;1.00;0.30;;;;;;;;;;5405896;26;20006;-79
2024/04/14 10:56:28;;;;;;;1.50;1.25;;;;;;;;;;5396002;26;20004;-80
2024/04/14 10:58:54;;;;;;;0.40;0.40;;;;;;;;;;5387826;26;20007;-81
2024/04/14 11:01:20;;;;;;;0.93;0.85;;;;;;;;;;5327933;26;21056;-78
2024/04/14 11:03:47;;;;;;;0.30;0.30;;;;;;;;;;5386508;26;20007;-81
2024/04/14 11:06:13;;;;;;;1.05;0.30;;;;;;;;;;5393657;26;20011;-81
2024/04/14 11:08:40;;;;;;;0.43;0.40;;;;;;;;;;5397802;26;20462;-76
2024/04/14 11:11:06;;;;;;;1.35;1.05;;;;;;;;;;5388937;26;20948;-82
2024/04/14 11:13:32;;;;;;;0.20;0.20;;;;;;;;;;5388676;26;20047;-81
2024/04/14 11:15:58;;;;;;;1.08;0.98;;;;;;;;;;5367607;26;20000;-74
2024/04/14 11:18:30;;;;;;;1.85;1.75;;;;;;;;;;5400991;26;20012;-76
2024/04/14 11:20:55;;;;;;;0.40;0.40;;;;;;;;;;5401505;26;20003;-78
2024/04/14 11:23:21;;;;;;;0.63;0.57;;;;;;;;;;5390272;26;20343;-78
2024/04/14 11:25:47;;;;;;;1.15;0.95;;;;;;;;;;5397447;26;20003;-76
2024/04/14 11:28:14;;;;;;;1.80;1.45;;;;;;;;;;5375454;26;20477;-76
2024/04/14 11:30:41;;;;;;;0.93;0.90;;;;;;;;;;5388050;26;19996;-77
2024/04/14 11:33:07;;;;;;;5.57;2.25;;;;;;;;;;5387801;26;20035;-76
2024/04/14 11:35:33;;;;;;;1.08;0.98;;;;;;;;;;5394813;26;20000;-78
2024/04/14 11:37:58;;;;;;;0.55;0.55;;;;;;;;;;5399135;26;19999;-75
2024/04/14 11:40:25;;;;;;;0.45;0.35;;;;;;;;;;5403672;26;19999;-76
2024/04/14 11:42:51;;;;;;;0.63;0.63;;;;;;;;;;5408686;26;20007;-78
2024/04/14 11:45:17;;;;;;;1.95;1.17;;;;;;;;;;5393372;26;20004;-79
2024/04/14 11:47:45;;;;;;;0.57;0.35;;;;;;;;;;5397166;26;20089;-77
2024/04/14 11:50:11;;;;;;;0.75;0.57;;;;;;;;;;5398879;26;20008;-77
2024/04/14 11:52:37;;;;;;;1.25;1.15;;;;;;;;;;5366603;26;20485;-78
2024/04/14 11:55:04;;;;;;;0.60;0.60;;;;;;;;;;5385134;26;20015;-75
2024/04/14 11:57:29;;;;;;;0.73;0.55;;;;;;;;;;5384376;26;20073;-77
2024/04/14 11:59:55;;;;;;;1.98;1.85;;;;;;;;;;5393655;26;20003;-80
2024/04/14 12:02:21;;;;;;;1.10;0.88;;;;;;;;;;5406427;26;20039;-79
2024/04/14 12:04:48;;;;;;;0.75;0.63;;;;;;;;;;5385197;26;20011;-84
2024/04/14 12:07:14;;;;;;;0.50;0.50;;;;;;;;;;5390650;26;19999;-77
2024/04/14 12:09:40;;;;;;;2.08;1.02;;;;;;;;;;5370629;26;20004;-78
2024/04/14 12:12:06;;;;;;;1.92;1.75;;;;;;;;;;5387465;26;20000;-84
2024/04/14 12:14:32;;;;;;;1.15;1.05;;;;;;;;;;5375962;26;20817;-83
2024/04/14 12:16:59;;;;;;;0.70;0.70;;;;;;;;;;5410047;26;20007;-86
2024/04/14 12:19:25;;;;;;;1.83;1.48;;;;;;;;;;5384377;26;20076;-82
2024/04/14 12:21:50;;;;;;;0.80;0.80;;;;;;;;;;5373316;26;20447;-88
2024/04/14 12:24:17;;;;;;;1.33;1.23;;;;;;;;;;5354001;26;20004;-81
2024/04/14 12:26:43;;;;;;;0.25;0.25;;;;;;;;;;5388921;26;20003;-87
2024/04/14 12:29:09;;;;;;;0.70;0.70;;;;;;;;;;5390298;26;20008;-84
2024/04/14 12:31:35;;;;;;;1.83;0.75;;;;;;;;;;5390171;26;19999;-88
2024/04/14 12:34:01;;;;;;;0.13;0.13;;;;;;;;;;5359535;26;20015;-82
2024/04/14 12:36:27;;;;;;;0.75;0.75;;;;;;;;;;5401286;26;20954;-83
2024/04/14 12:38:53;;;;;;;5.97;0.40;;;;;;;;;;5375752;26;19999;-85
2024/04/14 12:41:20;;;;;;;0.43;0.28;;;;;;;;;;5372273;26;20051;-84
2024/04/14 12:43:46;;;;;;;0.73;0.73;;;;;;;;;;5404443;26;20000;-83
2024/04/14 12:46:12;;;;;;;0.40;0.40;;;;;;;;;;5390772;26;20020;-80
2024/04/14 12:48:41;;;;;;;0.95;0.73;;;;;;;;;;5422715;26;20000;-79
2024/04/14 12:51:07;;;;;;;0.20;0.20;;;;;;;;;;5405160;26;20096;-83
2024/04/14 12:53:37;;;;;;;1.77;1.35;;;;;;;;;;5395369;26;19999;-84
2024/04/14 12:56:03;;;;;;;0.65;0.65;;;;;;;;;;5371924;26;19999;-87
2024/04/14 12:58:29;;;;;;;1.73;1.63;;;;;;;;;;5381690;26;20089;-86
2024/04/14 13:00:56;;;;;;;0.65;0.65;;;;;;;;;;5363766;26;19999;-90
2024/04/14 13:03:22;;;;;;;0.32;0.32;;;;;;;;;;5366877;26;20010;-91
2024/04/14 13:05:51;;;;;;;0.50;0.50;;;;;;;;;;5423588;26;20007;-90
2024/04/14 13:08:17;;;;;;;0.30;0.30;;;;;;;;;;5377257;26;20000;-87
2024/04/14 13:10:42;;;;;;;0.52;0.50;;;;;;;;;;5373988;26;20513;-88
2024/04/14 13:13:08;;;;;;;5.25;0.80;;;;;;;;;;5364809;26;20008;-88
2024/04/14 13:15:34;;;;;;;0.35;0.35;;;;;;;;;;5402999;26;20008;-89
2024/04/14 13:18:01;;;;;;;14.95;2.13;;;;;;;;;;5382211;26;19996;-88
2024/04/14 13:20:26;;;;;;;1.15;0.98;;;;;;;;;;5373739;26;20101;-89
2024/04/14 13:22:52;;;;;;;0.20;0.20;;;;;;;;;;5370651;26;20014;-89
2024/04/14 13:25:18;;;;;;;1.15;0.82;;;;;;;;;;5390916;26;20410;-89
2024/04/14 13:27:43;;;;;;;2.80;1.50;;;;;;;;;;5378936;26;20003;-86
2024/04/14 13:30:09;;;;;;;0.47;0.40;;;;;;;;;;5384392;26;19999;-86
2024/04/14 13:32:35;;;;;;;0.30;0.30;;;;;;;;;;5400926;26;19999;-88
2024/04/14 13:35:02;;;;;;;0.35;0.35;;;;;;;;;;5413369;26;20000;-88
2024/04/14 13:37:27;;;;;;;2.38;0.65;;;;;;;;;;5356965;26;20039;-88
2024/04/14 13:39:53;;;;;;;0.40;0.40;;;;;;;;;;5378152;26;20845;-89
2024/04/14 13:42:19;;;;;;;0.60;0.40;;;;;;;;;;5401200;26;20003;-87
2024/04/14 13:44:45;;;;;;;0.60;0.60;;;;;;;;;;5406859;26;20034;-87
2024/04/14 13:47:11;;;;;;;0.28;0.28;;;;;;;;;;5404181;26;20331;-85
2024/04/14 13:49:40;;;;;;;0.20;0.20;;;;;;;;;;5406287;26;20366;-88
2024/04/14 13:52:06;;;;;;;2.08;1.85;;;;;;;;;;5385786;26;20003;-88
2024/04/14 13:54:32;;;;;;;0.55;0.52;;;;;;;;;;5379371;26;20367;-88
2024/04/14 13:56:59;;;;;;;1.10;1.05;;;;;;;;;;5397439;26;20011;-89
2024/04/14 13:59:25;;;;;;;0.70;0.63;;;;;;;;;;5346327;26;20283;-88
2024/04/14 14:01:51;;;;;;;1.10;1.00;;;;;;;;;;5407876;26;20007;-89
2024/04/14 14:04:18;;;;;;;1.15;1.05;;;;;;;;;;5406335;26;20019;-88
2024/04/14 14:06:43;;;;;;;2.50;2.00;;;;;;;;;;5408837;26;20331;-88
2024/04/14 14:09:10;;;;;;;2.28;1.23;;;;;;;;;;5370557;26;20072;-86
2024/04/14 14:11:36;;;;;;;0.85;0.68;;;;;;;;;;5392363;26;20311;-89
2024/04/14 14:14:01;;;;;;;0.38;0.38;;;;;;;;;;5374309;26;20007;-88
2024/04/14 14:16:27;;;;;;;0.38;0.38;;;;;;;;;;5372869;26;19996;-90
2024/04/14 14:18:53;;;;;;;0.40;0.30;;;;;;;;;;5373341;26;20039;-87
2024/04/14 14:21:18;;;;;;;1.45;1.13;;;;;;;;;;5409180;26;20014;-86
2024/04/14 14:23:44;;;;;;;0.43;0.32;;;;;;;;;;5415204;26;20094;-88
2024/04/14 14:26:10;;;;;;;0.55;0.55;;;;;;;;;;5417028;26;20006;-85
2024/04/14 14:28:37;;;;;;;1.30;1.10;;;;;;;;;;5398995;26;19997;-90
2024/04/14 14:31:03;;;;;;;1.05;0.95;;;;;;;;;;5380340;26;20012;-90
2024/04/14 14:36:26;;;;;;;1.15;1.05;;;;;;;;;;5414915;26;20361;-87
2024/04/14 14:38:56;;;;;;;0.85;0.65;;;;;;;;;;5380293;26;20439;-89
2024/04/14 14:41:22;;;;;;;0.68;0.65;;;;;;;;;;5406248;26;19995;-89